Time;durP1;ratioP1;P1;durP2;ratioP2;P2;SDS_P1;SDS_P2;PMS_P1;PMS_P2;Temp;Humidity;BMP_temperature;BMP_pressure;BME280_temperature;BME280_humidity;BME280_pressure;Samples;Min_cycle;Max_cycle;Signal;HPM_P1;HPM_P2
2021/04/10 00:00:29;;;;;;;0.80;0.77;;;7.40;94.30;;;10.31;82.43;101381.13;5055816;27;99128;-66
2021/04/10 00:02:57;;;;;;;0.25;0.25;;;7.40;94.30;;;10.27;82.23;101375.50;5095954;27;97413;-66
2021/04/10 00:05:28;;;;;;;0.75;0.57;;;7.40;94.20;;;10.25;82.61;101380.34;5050971;27;96881;-66
2021/04/10 00:07:56;;;;;;;0.20;0.20;;;7.40;94.30;;;10.19;82.71;101384.19;5061278;27;98600;-66
2021/04/10 00:10:28;;;;;;;0.45;0.45;;;7.30;94.20;;;10.12;82.55;101381.03;5059705;27;98715;-66
2021/04/10 00:12:56;;;;;;;1.75;1.13;;;7.30;94.20;;;10.10;82.97;101382.38;5060835;27;97297;-67
2021/04/10 00:15:27;;;;;;;1.80;0.90;;;7.30;94.30;;;10.13;83.12;101382.63;5061673;27;96949;-66
2021/04/10 00:17:55;;;;;;;1.00;0.75;;;7.30;94.30;;;10.09;83.13;101391.50;5057851;27;97158;-66
2021/04/10 00:20:25;;;;;;;0.70;0.63;;;7.30;94.30;;;10.15;83.22;101379.66;5060008;27;97824;-67
2021/04/10 00:22:53;;;;;;;0.17;0.13;;;7.30;94.40;;;10.14;83.30;101392.25;5056123;27;97244;-67
2021/04/10 00:25:21;;;;;;;16.42;0.70;;;7.30;94.40;;;10.12;83.32;101386.41;5057380;27;97101;-66
2021/04/10 00:27:56;;;;;;;0.45;0.40;;;7.30;94.40;;;10.10;82.96;101390.41;5061663;27;96716;-66
2021/04/10 00:30:24;;;;;;;4.00;1.92;;;7.30;94.30;;;10.05;83.10;101385.13;5058862;27;97488;-66
2021/04/10 00:32:52;;;;;;;0.40;0.40;;;7.30;94.30;;;9.98;83.04;101387.31;5058573;27;96818;-67
2021/04/10 00:35:20;;;;;;;1.17;0.30;;;7.20;94.30;;;9.95;82.92;101395.91;5052515;27;97016;-66
2021/04/10 00:37:48;;;;;;;0.40;0.40;;;7.20;94.30;;;9.95;83.57;101390.53;5062349;27;98343;-66
2021/04/10 00:40:16;;;;;;;0.73;0.63;;;7.20;94.30;;;9.96;83.34;101392.91;5062942;27;98786;-66
2021/04/10 00:42:44;;;;;;;5.38;2.15;;;7.20;94.30;;;9.95;82.94;101385.19;5062765;27;96821;-66
2021/04/10 00:45:13;;;;;;;7.00;3.40;;;7.20;94.30;;;9.94;82.92;101395.09;5066067;27;96821;-66
2021/04/10 00:47:41;;;;;;;0.93;0.93;;;7.20;94.30;;;9.99;83.43;101386.22;5060530;27;98483;-66
2021/04/10 00:50:11;;;;;;;0.50;0.50;;;7.20;94.30;;;9.98;83.34;101389.97;5061886;27;97710;-66
2021/04/10 00:52:42;;;;;;;0.52;0.52;;;7.10;94.40;;;9.94;83.16;101389.72;5063404;27;97161;-67
2021/04/10 00:55:13;;;;;;;1.27;0.57;;;7.10;94.30;;;9.92;83.22;101391.91;5042719;27;96897;-67
2021/04/10 00:57:41;;;;;;;0.45;0.38;;;7.10;94.30;;;9.91;83.08;101382.25;5054227;27;97009;-66
2021/04/10 01:00:10;;;;;;;4.53;0.93;;;7.10;94.30;;;9.91;83.41;101384.94;5041663;27;98719;-66
2021/04/10 01:02:39;;;;;;;2.63;1.88;;;7.10;94.30;;;9.90;83.41;101375.31;5056392;27;97151;-66
2021/04/10 01:05:09;;;;;;;0.10;0.10;;;7.10;94.40;;;9.90;83.18;101386.03;5059497;27;97308;-66
2021/04/10 01:07:38;;;;;;;3.03;1.52;;;7.10;94.30;;;9.89;83.10;101379.06;5097098;27;98246;-66
2021/04/10 01:10:12;;;;;;;1.15;0.63;;;7.10;94.30;;;9.90;83.01;101382.53;5061017;27;96884;-66
2021/04/10 01:12:59;;;;;;;46.35;1.25;;;7.10;94.30;;;9.89;83.47;101381.75;5060855;27;97350;-67
2021/04/10 01:15:45;;;;;;;0.47;0.47;;;7.10;94.40;;;9.92;82.92;101383.88;5053143;27;96996;-66
2021/04/10 01:18:19;;;;;;;0.17;0.17;;;7.10;94.40;;;9.90;82.96;101382.53;5057407;27;98059;-65
2021/04/10 01:21:13;;;;;;;5.13;2.90;;;7.10;94.30;;;9.93;82.81;101384.69;5062502;27;98192;-66
2021/04/10 01:24:37;;;;;;;0.82;0.82;;;7.10;94.40;;;9.90;83.02;101393.25;5055806;27;97065;-65
2021/04/10 01:27:37;;;;;;;0.30;0.30;;;7.10;94.30;;;9.85;83.12;101393.28;5060480;27;97316;-66
2021/04/10 01:30:15;;;;;;;0.45;0.45;;;7.10;94.30;;;9.84;83.18;101383.66;5064461;27;97580;-66
2021/04/10 01:32:53;;;;;;;0.82;0.40;;;7.10;94.30;;;9.85;83.28;101380.72;5063670;27;98760;-65
2021/04/10 01:35:35;;;;;;;0.20;0.20;;;7.00;94.30;;;9.82;83.06;101383.97;5065327;27;97100;-66
2021/04/10 01:38:13;;;;;;;0.47;0.47;;;7.00;94.30;;;9.81;82.71;101385.03;5061355;27;96715;-66
2021/04/10 01:40:43;;;;;;;0.80;0.57;;;7.00;94.30;;;9.80;82.96;101393.34;5056369;27;98743;-66
2021/04/10 01:43:13;;;;;;;20.98;1.27;;;7.00;94.30;;;9.78;82.87;101390.94;5043905;27;97445;-66
2021/04/10 01:45:44;;;;;;;1.65;1.08;;;7.00;94.30;;;9.78;82.92;101377.56;5046200;27;97489;-66
2021/04/10 01:48:16;;;;;;;0.75;0.52;;;7.00;94.30;;;9.77;82.76;101385.88;5058419;27;97382;-66
2021/04/10 01:50:46;;;;;;;3.25;2.47;;;6.90;94.30;;;9.73;82.87;101392.88;5061359;27;96669;-66
2021/04/10 01:53:15;;;;;;;1.85;0.95;;;6.90;94.30;;;9.70;83.03;101396.09;5061429;27;97858;-66
2021/04/10 01:55:47;;;;;;;0.77;0.35;;;6.90;94.30;;;9.66;82.95;101393.16;5063020;27;97356;-67
2021/04/10 01:58:19;;;;;;;2.28;1.23;;;6.90;94.30;;;9.67;83.09;101399.34;5071318;27;96967;-66
2021/04/10 02:00:52;;;;;;;1.63;1.20;;;6.90;94.30;;;9.69;83.26;101397.97;5066948;27;97274;-66
2021/04/10 02:03:22;;;;;;;1.17;0.90;;;6.90;94.30;;;9.68;83.32;101400.94;5046314;27;99065;-66
2021/04/10 02:05:54;;;;;;;0.75;0.63;;;6.90;94.40;;;9.69;83.19;101405.22;5063690;27;96872;-66
2021/04/10 02:08:39;;;;;;;0.68;0.68;;;6.90;94.40;;;9.65;83.01;101396.16;5080177;27;97310;-66
2021/04/10 02:11:17;;;;;;;0.80;0.80;;;6.90;94.30;;;9.61;83.01;101403.13;5059617;27;98161;-67
2021/04/10 02:13:51;;;;;;;0.35;0.30;;;6.80;94.30;;;9.60;83.24;101406.84;5063934;27;97676;-65
2021/04/10 02:16:32;;;;;;;0.47;0.47;;;6.80;94.30;;;9.60;83.30;101412.22;5092894;27;96900;-66
2021/04/10 02:19:10;;;;;;;0.32;0.32;;;6.80;94.30;;;9.63;83.33;101399.09;5060696;27;97279;-66
2021/04/10 02:21:39;;;;;;;0.20;0.20;;;6.80;94.40;;;9.61;83.11;101403.91;5061855;27;97539;-66
2021/04/10 02:24:10;;;;;;;2.95;1.80;;;6.80;94.40;;;9.60;83.24;101406.84;5058128;27;98076;-66
2021/04/10 02:26:50;;;;;;;0.10;0.10;;;6.80;94.40;;;9.57;82.87;101402.06;5063573;27;97168;-65
2021/04/10 02:29:24;;;;;;;1.80;1.20;;;6.80;94.30;;;9.52;83.25;101404.78;5059547;27;97497;-66
2021/04/10 02:32:05;;;;;;;0.30;0.25;;;6.80;94.30;;;9.49;83.46;101406.16;5061237;27;98110;-66
2021/04/10 02:34:50;;;;;;;0.08;0.08;;;6.80;94.40;;;9.48;83.41;101409.09;5059357;27;97146;-66
2021/04/10 02:37:20;;;;;;;0.10;0.10;;;6.80;94.40;;;9.51;83.34;101412.03;5042827;27;97037;-66
2021/04/10 02:39:51;;;;;;;0.60;0.38;;;6.70;94.40;;;9.57;83.03;101410.09;5059040;27;97245;-66
2021/04/10 02:42:21;;;;;;;5.88;0.93;;;6.80;94.40;;;9.56;83.25;101413.84;5057531;27;98873;-66
2021/04/10 02:44:53;;;;;;;1.30;1.17;;;6.80;94.50;;;9.60;83.21;101418.38;5091968;27;98337;-66
2021/04/10 02:47:29;;;;;;;0.52;0.45;;;6.80;94.50;;;9.51;83.45;101416.56;5072407;27;97264;-67
2021/04/10 02:50:09;;;;;;;1.08;0.98;;;6.80;94.40;;;9.50;83.36;101420.31;5074708;27;97034;-66
2021/04/10 02:52:47;;;;;;;0.10;0.10;;;6.70;94.30;;;9.47;83.30;101426.22;5060219;27;98292;-66
2021/04/10 02:55:29;;;;;;;0.95;0.60;;;6.70;94.30;;;9.48;83.18;101414.44;5062984;27;96947;-66
2021/04/10 02:58:05;;;;;;;0.15;0.15;;;6.70;94.40;;;9.50;83.20;101415.78;5077980;27;97475;-65
2021/04/10 03:00:34;;;;;;;0.10;0.10;;;6.70;94.40;;;9.52;83.19;101415.47;5060270;27;97160;-66
2021/04/10 03:03:06;;;;;;;3.35;1.63;;;6.70;94.40;;;9.51;83.12;101422.72;5057618;27;99251;-66
2021/04/10 03:05:39;;;;;;;0.40;0.40;;;6.70;94.40;;;9.48;83.14;101417.94;5043750;27;97538;-66
2021/04/10 03:08:08;;;;;;;0.40;0.40;;;6.70;94.30;;;9.47;83.16;101415.53;5062922;27;97145;-66
2021/04/10 03:10:37;;;;;;;0.20;0.20;;;6.70;94.30;;;9.48;83.01;101414.44;5076584;27;96992;-66
2021/04/10 03:13:05;;;;;;;1.40;1.20;;;6.70;94.40;;;9.48;83.09;101417.13;5060515;27;97866;-66
2021/04/10 03:15:35;;;;;;;0.30;0.30;;;6.70;94.40;;;9.48;83.10;101417.13;5060768;27;97673;-66
2021/04/10 03:18:07;;;;;;;0.32;0.32;;;6.70;94.40;;;9.46;83.17;101413.91;5063919;27;97162;-66
2021/04/10 03:20:37;;;;;;;0.30;0.30;;;6.70;94.40;;;9.47;82.67;101416.34;5059619;27;96950;-66
2021/04/10 03:23:06;;;;;;;0.68;0.68;;;6.60;94.40;;;9.40;83.17;101415.03;5057693;27;98056;-66
2021/04/10 03:25:40;;;;;;;1.15;0.43;;;6.60;94.30;;;9.37;83.14;101412.91;5058618;27;97833;-66
2021/04/10 03:28:11;;;;;;;18.55;1.10;;;6.60;94.30;;;9.34;83.15;101413.47;5060695;27;98170;-66
2021/04/10 03:30:42;;;;;;;0.35;0.35;;;6.60;94.30;;;9.32;83.37;101423.66;5063485;27;97262;-66
2021/04/10 03:33:18;;;;;;;1.23;0.73;;;6.60;94.30;;;9.32;83.00;101412.94;5081028;27;98425;-65
2021/04/10 03:35:47;;;;;;;1.73;0.75;;;6.60;94.30;;;9.32;83.17;101412.94;5065595;27;97279;-65
2021/04/10 03:38:16;;;;;;;0.82;0.82;;;6.60;94.30;;;9.27;83.11;101420.97;5041944;27;97266;-66
2021/04/10 03:40:44;;;;;;;1.20;1.08;;;6.60;94.30;;;9.27;83.17;101419.13;5061190;27;97021;-65
2021/04/10 03:43:15;;;;;;;0.10;0.10;;;6.50;94.30;;;9.23;83.26;101416.47;5060480;27;97214;-65
2021/04/10 03:45:48;;;;;;;0.40;0.40;;;6.50;94.30;;;9.21;83.00;101416.75;5064367;27;97002;-65
2021/04/10 03:48:24;;;;;;;0.32;0.32;;;6.50;94.30;;;9.15;83.33;101417.84;5040947;27;97555;-66
2021/04/10 03:50:58;;;;;;;0.05;0.05;;;6.40;94.30;;;9.13;83.33;101425.34;5061632;27;97198;-65
2021/04/10 03:53:31;;;;;;;0.22;0.22;;;6.40;94.30;;;9.11;83.24;101426.69;5091641;27;98556;-65
2021/04/10 03:56:05;;;;;;;0.20;0.20;;;6.40;94.30;;;9.12;83.28;101434.44;5071617;27;97772;-66
2021/04/10 03:58:37;;;;;;;0.47;0.47;;;6.40;94.30;;;9.10;83.19;101433.09;5062521;27;97169;-66
2021/04/10 04:01:07;;;;;;;0.63;0.57;;;6.40;94.30;;;9.07;83.05;101429.13;5062976;27;97280;-66
2021/04/10 04:03:37;;;;;;;0.30;0.30;;;6.40;94.30;;;9.08;83.24;101440.59;5088046;27;97839;-65
2021/04/10 04:06:05;;;;;;;0.75;0.43;;;6.30;94.30;;;9.06;83.21;101442.75;5060262;27;98382;-66
2021/04/10 04:08:33;;;;;;;0.30;0.30;;;6.30;94.30;;;9.00;83.25;101446.53;5060585;27;97029;-65
2021/04/10 04:11:03;;;;;;;0.45;0.45;;;6.30;94.20;;;8.98;83.15;101438.75;5059708;27;97188;-66
2021/04/10 04:13:32;;;;;;;0.63;0.63;;;6.30;94.20;;;8.97;83.46;101442.50;5056627;27;97069;-66
2021/04/10 04:15:59;;;;;;;0.13;0.13;;;6.30;94.30;;;8.98;83.26;101440.66;5061818;27;98496;-65
2021/04/10 04:18:31;;;;;;;0.00;0.00;;;6.20;94.30;;;8.99;83.15;101437.69;5059666;27;96803;-66
2021/04/10 04:20:59;;;;;;;0.17;0.17;;;6.20;94.30;;;9.04;82.93;101440.38;5059520;27;97311;-65
2021/04/10 04:23:30;;;;;;;0.20;0.20;;;6.20;94.30;;;9.03;82.97;101451.31;5054110;27;98191;-65
2021/04/10 04:25:58;;;;;;;0.70;0.60;;;6.20;94.30;;;9.02;82.90;101449.72;5059557;27;97272;-67
2021/04/10 04:28:25;;;;;;;0.10;0.10;;;6.20;94.30;;;9.03;82.89;101452.13;5063711;27;96869;-65
2021/04/10 04:30:53;;;;;;;2.08;0.85;;;6.20;94.30;;;9.03;82.80;101459.34;5064412;27;97147;-65
2021/04/10 04:33:21;;;;;;;0.45;0.40;;;6.20;94.30;;;9.01;82.66;101456.94;5077301;27;97752;-65
2021/04/10 04:35:48;;;;;;;0.00;0.00;;;6.20;94.30;;;8.99;82.80;101467.09;5065929;27;97133;-66
2021/04/10 04:38:17;;;;;;;0.20;0.20;;;6.20;94.30;;;8.99;82.65;101475.09;5064318;27;97348;-66
2021/04/10 04:40:45;;;;;;;0.20;0.20;;;6.10;94.30;;;8.98;82.88;101468.16;5055358;27;97339;-65
2021/04/10 04:43:13;;;;;;;0.00;0.00;;;6.10;94.30;;;8.97;82.91;101473.78;5062407;27;98223;-65
2021/04/10 04:45:41;;;;;;;0.63;0.57;;;6.10;94.30;;;8.96;82.74;101469.53;5061500;27;97168;-66
2021/04/10 04:48:09;;;;;;;0.45;0.35;;;6.10;94.20;;;8.96;82.65;101475.66;5059276;27;96716;-65
2021/04/10 04:50:37;;;;;;;0.00;0.00;;;6.10;94.20;;;8.96;82.64;101483.69;5059604;27;97003;-65
2021/04/10 04:53:05;;;;;;;0.17;0.17;;;6.10;94.30;;;9.02;82.62;101482.59;5061172;27;97720;-66
2021/04/10 04:55:33;;;;;;;0.10;0.10;;;6.10;94.30;;;9.05;82.48;101482.06;5090901;27;98025;-66
2021/04/10 04:58:03;;;;;;;0.10;0.10;;;6.10;94.30;;;9.06;82.55;101483.66;5044098;27;97131;-67
2021/04/10 05:00:32;;;;;;;0.03;0.03;;;6.10;94.30;;;9.01;82.57;101486.34;5061049;27;97157;-66
2021/04/10 05:03:00;;;;;;;0.43;0.43;;;6.10;94.30;;;9.01;82.45;101481.00;5047222;27;98447;-65
2021/04/10 05:05:31;;;;;;;0.00;0.00;;;6.10;94.30;;;9.01;82.26;101489.03;5063699;27;97711;-65
2021/04/10 05:07:58;;;;;;;0.00;0.00;;;6.10;94.20;;;8.99;82.17;101488.47;5064054;27;96691;-65
2021/04/10 05:10:26;;;;;;;0.00;0.00;;;6.10;94.20;;;9.01;82.18;101491.69;5064017;27;96762;-65
2021/04/10 05:12:55;;;;;;;0.10;0.10;;;6.10;94.30;;;9.05;82.40;101492.75;5059294;27;97464;-65
2021/04/10 05:15:23;;;;;;;0.30;0.30;;;6.10;94.40;;;9.10;82.07;101507.94;5057383;27;98147;-66
2021/04/10 05:17:51;;;;;;;0.10;0.10;;;6.10;94.30;;;9.10;81.82;101506.09;5060838;27;97353;-65
2021/04/10 05:20:18;;;;;;;17.95;0.50;;;6.10;94.20;;;9.12;82.11;101509.28;5057818;27;97150;-65
2021/04/10 05:22:53;;;;;;;0.28;0.10;;;6.10;94.20;;;9.16;81.97;101515.69;5062581;27;97947;-65
2021/04/10 05:25:21;;;;;;;0.50;0.50;;;6.10;94.20;;;9.15;81.62;101519.44;5091455;27;97323;-66
2021/04/10 05:27:50;;;;;;;0.10;0.10;;;6.10;94.20;;;9.20;82.07;101516.75;5064237;27;97626;-65
2021/04/10 05:30:21;;;;;;;0.10;0.10;;;6.20;94.20;;;9.22;82.11;101516.47;5060184;27;97096;-65
2021/04/10 05:32:49;;;;;;;0.15;0.15;;;6.20;94.20;;;9.21;82.00;101520.22;5057549;27;97822;-65
2021/04/10 05:35:18;;;;;;;0.17;0.17;;;6.20;94.20;;;9.23;82.06;101529.56;5050244;27;98457;-65
2021/04/10 05:37:46;;;;;;;0.10;0.10;;;6.20;94.20;;;9.28;81.82;101525.00;5064523;27;96829;-65
2021/04/10 05:40:14;;;;;;;0.10;0.10;;;6.20;94.20;;;9.30;81.93;101530.88;5066787;27;97001;-65
2021/04/10 05:42:42;;;;;;;0.10;0.10;;;6.20;94.20;;;9.38;81.60;101524.94;5069384;27;97133;-66
2021/04/10 05:45:11;;;;;;;0.10;0.10;;;6.30;94.20;;;9.43;81.49;101521.47;5064434;27;97681;-66
2021/04/10 05:47:41;;;;;;;1.45;0.75;;;6.30;94.10;;;9.50;81.31;101513.94;5063064;27;97138;-66
2021/04/10 05:50:11;;;;;;;0.10;0.10;;;6.40;94.10;;;9.52;81.29;101517.13;5063239;27;97390;-66
2021/04/10 05:52:39;;;;;;;0.00;0.00;;;6.40;94.00;;;9.55;81.21;101525.41;5068660;27;97359;-65
2021/04/10 05:55:09;;;;;;;0.10;0.10;;;6.40;94.00;;;9.62;81.27;101530.47;5058907;27;97718;-65
2021/04/10 05:57:37;;;;;;;0.22;0.22;;;6.50;94.00;;;9.63;81.36;101543.56;5059496;27;97209;-65
2021/04/10 06:00:08;;;;;;;0.40;0.25;;;6.50;94.00;;;9.70;81.02;101549.41;5062615;27;96947;-65
2021/04/10 06:02:43;;;;;;;0.28;0.28;;;6.60;94.00;;;9.75;80.91;101551.25;5062055;27;98059;-66
2021/04/10 06:05:14;;;;;;;0.63;0.63;;;6.60;93.90;;;9.80;81.10;101556.59;5066026;27;97740;-65
2021/04/10 06:07:41;;;;;;;0.45;0.38;;;6.60;93.90;;;9.83;80.91;101553.34;5066792;27;96780;-65
2021/04/10 06:10:10;;;;;;;0.10;0.10;;;6.60;93.90;;;9.84;81.36;101561.13;5066520;27;97030;-65
2021/04/10 06:12:38;;;;;;;0.10;0.10;;;6.70;93.90;;;9.82;81.12;101555.25;5060645;27;96903;-65
2021/04/10 06:15:10;;;;;;;0.85;0.85;;;6.70;93.90;;;9.85;81.04;101545.84;5065830;27;97703;-66
2021/04/10 06:17:38;;;;;;;2.75;0.28;;;6.70;93.90;;;9.94;80.83;101552.22;5064390;27;97154;-65
2021/04/10 06:20:10;;;;;;;2.50;1.02;;;6.70;93.90;;;10.02;80.71;101549.00;5091178;27;96786;-66
2021/04/10 06:22:40;;;;;;;0.10;0.10;;;6.80;93.80;;;10.03;80.67;101553.25;5052607;27;99361;-65
2021/04/10 06:25:09;;;;;;;0.40;0.40;;;6.80;93.80;;;10.11;80.41;101556.16;5067765;27;97158;-65
2021/04/10 06:27:38;;;;;;;1.35;0.25;;;6.90;93.70;;;10.22;80.31;101549.66;5064879;27;97025;-65
2021/04/10 06:30:10;;;;;;;1.65;0.63;;;6.90;93.70;;;10.40;79.88;101553.53;5064516;27;97342;-65
2021/04/10 06:32:38;;;;;;;0.10;0.10;;;7.00;93.70;;;10.69;79.43;101557.84;5058611;27;98102;-65
2021/04/10 06:35:09;;;;;;;0.10;0.10;;;7.10;93.70;;;10.86;78.63;101552.06;5060718;27;97678;-66
2021/04/10 06:37:37;;;;;;;1.10;0.82;;;7.30;93.50;;;11.11;78.11;101550.72;5063350;27;96728;-66
2021/04/10 06:40:07;;;;;;;0.00;0.00;;;7.40;93.40;;;11.33;78.02;101552.88;5062544;27;96921;-66
2021/04/10 06:42:36;;;;;;;0.10;0.10;;;7.60;93.20;;;11.41;78.10;101549.53;5062305;27;97550;-67
2021/04/10 06:45:07;;;;;;;0.17;0.10;;;7.70;93.00;;;11.63;77.31;101553.31;5052670;27;97176;-66
2021/04/10 06:47:36;;;;;;;22.17;0.52;;;7.90;93.00;;;12.38;75.95;101552.22;5046011;27;97239;-66
2021/04/10 06:50:08;;;;;;;7.72;1.50;;;8.10;92.90;;;13.75;71.17;101558.22;5061372;27;97075;-67
2021/04/10 06:52:40;;;;;;;0.00;0.00;;;8.60;92.40;;;13.79;71.34;101557.31;5065625;27;98053;-66
2021/04/10 06:55:13;;;;;;;0.30;0.30;;;9.10;91.80;;;13.96;70.72;101562.06;5057855;27;97685;-66
2021/04/10 06:57:53;;;;;;;0.43;0.38;;;9.40;91.50;;;14.18;70.90;101569.13;5063476;27;97240;-67
2021/04/10 07:00:22;;;;;;;0.00;0.00;;;9.60;91.10;;;14.02;71.07;101570.53;5064210;27;97602;-66
2021/04/10 07:02:51;;;;;;;0.00;0.00;;;9.80;90.90;;;13.88;72.26;101568.97;5058500;27;98358;-67
2021/04/10 07:05:21;;;;;;;0.10;0.10;;;9.90;90.90;;;13.93;72.60;101568.06;5060948;27;97503;-66
2021/04/10 07:07:51;;;;;;;0.52;0.52;;;10.00;91.00;;;13.94;72.93;101566.97;5059751;27;97132;-66
2021/04/10 07:10:20;;;;;;;2.42;0.65;;;10.00;91.00;;;14.06;72.39;101563.41;5054469;27;97281;-66
2021/04/10 07:12:48;;;;;;;0.20;0.20;;;10.10;91.10;;;14.65;71.59;101565.78;5062884;27;98555;-66
2021/04/10 07:15:18;;;;;;;0.32;0.32;;;10.20;91.10;;;16.38;66.57;101565.69;5064195;27;97085;-66
2021/04/10 07:18:07;;;;;;;0.25;0.25;;;10.60;90.80;;;16.97;65.13;101557.47;5060402;27;97356;-66
2021/04/10 07:20:39;;;;;;;0.10;0.10;;;11.20;90.10;;;17.75;63.21;101557.56;5059000;27;97577;-66
2021/04/10 07:23:10;;;;;;;1.60;0.67;;;11.70;89.20;;;19.48;59.65;101563.31;5058111;27;96825;-66
2021/04/10 07:25:43;;;;;;;1.02;0.70;;;12.40;88.00;;;20.45;56.74;101559.28;5061312;27;97319;-68
2021/04/10 07:28:26;;;;;;;4.75;0.88;;;13.20;86.10;;;20.71;56.68;101557.66;5061879;27;97401;-66
2021/04/10 07:30:59;;;;;;;0.55;0.40;;;13.80;84.30;;;22.59;53.37;101559.31;5066009;27;96872;-67
2021/04/10 07:33:38;;;;;;;1.48;1.20;;;14.50;83.40;;;22.96;52.89;101554.91;5057574;27;97400;-67
2021/04/10 07:36:10;;;;;;;4.68;0.52;;;15.30;81.70;;;22.63;54.67;101557.44;5064523;27;96915;-67
2021/04/10 07:38:40;;;;;;;3.92;0.90;;;15.70;81.20;;;22.44;55.84;101559.41;5065651;27;97082;-66
2021/04/10 07:41:20;;;;;;;14.20;1.80;;;16.00;80.80;;;22.90;54.60;101561.84;5063991;27;97054;-66
2021/04/10 07:43:48;;;;;;;1.95;0.95;;;16.20;80.30;;;22.97;54.72;101556.53;5053441;27;98183;-66
2021/04/10 07:46:20;;;;;;;0.75;0.32;;;16.40;80.10;;;23.24;55.00;101562.84;5059294;27;97683;-67
2021/04/10 07:49:07;;;;;;;0.38;0.35;;;16.60;80.50;;;21.96;58.38;101557.25;5062586;27;97246;-66
2021/04/10 07:51:39;;;;;;;0.75;0.57;;;16.70;80.60;;;20.64;61.68;101555.53;5060855;27;97043;-66
2021/04/10 07:54:25;;;;;;;0.00;0.00;;;16.40;80.60;;;19.95;63.83;101561.69;5057814;27;98097;-66
2021/04/10 07:57:03;;;;;;;2.03;0.63;;;16.00;81.40;;;19.76;63.60;101559.56;5062575;27;97085;-67
2021/04/10 07:59:34;;;;;;;10.00;0.40;;;15.70;82.10;;;20.34;61.58;101558.16;5065667;27;96979;-67
2021/04/10 08:02:12;;;;;;;1.13;0.52;;;15.50;82.30;;;20.75;60.79;101564.78;5063516;27;97172;-67
2021/04/10 08:04:41;;;;;;;3.88;0.80;;;15.50;82.40;;;20.39;61.65;101566.88;5056729;27;98231;-66
2021/04/10 08:07:12;;;;;;;2.55;0.32;;;15.40;82.60;;;20.12;62.88;101567.66;5061430;27;96940;-67
2021/04/10 08:09:40;;;;;;;3.05;1.10;;;15.30;83.20;;;20.70;60.70;101566.97;5053271;27;97267;-67
2021/04/10 08:12:11;;;;;;;0.63;0.63;;;15.30;83.70;;;20.57;62.50;101573.63;5061484;27;97265;-66
2021/04/10 08:14:43;;;;;;;0.65;0.40;;;15.40;84.20;;;20.01;62.93;101577.47;5053563;27;97098;-67
2021/04/10 08:17:13;;;;;;;0.05;0.05;;;15.40;83.90;;;18.94;66.02;101586.38;5083947;27;97793;-66
2021/04/10 08:19:42;;;;;;;1.90;0.65;;;15.20;84.10;;;18.03;68.46;101583.03;5057176;27;96947;-66
2021/04/10 08:22:14;;;;;;;0.00;0.00;;;14.90;84.20;;;17.17;70.75;101588.44;5050652;27;96951;-66
2021/04/10 08:24:43;;;;;;;0.93;0.50;;;14.60;84.60;;;16.57;72.31;101591.28;5044973;27;98056;-66
2021/04/10 08:27:14;;;;;;;0.35;0.35;;;14.10;85.30;;;16.27;72.51;101603.03;5059566;27;97295;-67
2021/04/10 08:29:44;;;;;;;1.60;1.50;;;13.70;86.30;;;16.24;72.56;101592.09;5059858;27;97373;-67
2021/04/10 08:32:13;;;;;;;8.02;0.77;;;13.40;87.10;;;15.96;73.51;101583.47;5059359;27;96730;-68
2021/04/10 08:34:40;;;;;;;4.85;1.27;;;13.20;87.60;;;15.69;74.17;101591.06;5061735;27;98009;-67
2021/04/10 08:37:16;;;;;;;0.20;0.20;;;13.00;88.00;;;15.48;74.52;101590.03;5064764;27;97698;-66
2021/04/10 08:39:48;;;;;;;2.53;0.57;;;12.80;88.30;;;15.30;74.19;101609.97;5076461;27;97116;-66
2021/04/10 08:42:18;;;;;;;0.00;0.00;;;12.60;88.00;;;15.03;74.41;101602.06;5068123;27;97237;-66
2021/04/10 08:44:48;;;;;;;1.75;0.73;;;12.40;88.40;;;15.16;74.07;101600.34;5062194;27;97885;-66
2021/04/10 08:47:19;;;;;;;0.28;0.28;;;12.30;88.90;;;15.27;73.66;101605.16;5065816;27;97094;-67
2021/04/10 08:49:50;;;;;;;0.35;0.35;;;12.20;88.80;;;16.00;71.52;101599.84;5060087;27;97562;-67
2021/04/10 08:52:29;;;;;;;3.35;2.13;;;12.20;89.40;;;16.25;70.08;101599.09;5063031;27;97328;-66
2021/04/10 08:55:10;;;;;;;0.60;0.43;;;12.30;89.50;;;15.89;71.17;101596.66;5090758;27;97461;-67
2021/04/10 08:57:40;;;;;;;6.13;0.98;;;12.40;89.40;;;15.57;72.51;101601.66;5065677;27;98912;-67
2021/04/10 09:00:22;;;;;;;0.10;0.10;;;12.30;89.50;;;15.08;74.11;101612.72;5055022;27;97253;-66
2021/04/10 09:02:53;;;;;;;0.15;0.15;;;12.20;89.10;;;14.81;74.42;101614.75;5054523;27;97262;-66
2021/04/10 09:05:24;;;;;;;20.27;0.47;;;12.00;89.30;;;14.89;74.33;101606.72;5053208;27;97861;-66
2021/04/10 09:08:02;;;;;;;1.85;0.80;;;12.00;89.70;;;15.20;73.69;101612.16;5054154;27;98383;-67
2021/04/10 09:10:47;;;;;;;8.50;1.60;;;11.90;89.70;;;15.57;72.25;101612.47;5083670;27;97116;-67
2021/04/10 09:13:43;;;;;;;1.65;0.47;;;12.00;89.90;;;15.55;72.21;101609.28;5059582;27;97171;-67
2021/04/10 09:16:34;;;;;;;1.33;1.05;;;12.10;89.70;;;15.87;71.26;101604.28;5058099;27;98428;-66
2021/04/10 09:19:16;;;;;;;1.30;0.85;;;12.20;89.80;;;16.16;71.31;101604.47;5055258;27;97139;-66
2021/04/10 09:21:49;;;;;;;0.50;0.50;;;12.30;89.70;;;16.46;70.11;101611.69;5056036;27;97145;-67
2021/04/10 09:24:40;;;;;;;3.03;2.23;;;12.50;89.40;;;16.87;69.28;101605.72;5066052;27;97598;-67
2021/04/10 09:27:22;;;;;;;2.30;0.32;;;12.70;89.00;;;17.63;67.37;101610.88;5082143;27;98092;-68
2021/04/10 09:30:04;;;;;;;5.30;1.15;;;12.90;88.80;;;17.66;67.63;101600.16;5058424;27;98720;-67
2021/04/10 09:32:40;;;;;;;;;;;13.20;88.50;;;17.44;68.04;101603.16;5062923;27;96851;-66
2021/04/10 09:35:12;;;;;;;3.08;1.77;;;13.30;87.70;;;17.37;69.15;101602.88;5059319;27;97466;-67
2021/04/10 09:37:54;;;;;;;6.47;1.50;;;13.40;87.70;;;17.42;69.46;101607.31;5060444;27;97928;-67
2021/04/10 09:40:48;;;;;;;0.90;0.40;;;13.50;87.70;;;17.62;68.86;101606.59;5039589;27;97988;-66
2021/04/10 09:43:20;;;;;;;11.50;1.23;;;13.60;87.70;;;17.68;68.13;101597.91;5064390;27;97149;-66
2021/04/10 09:45:51;;;;;;;1.17;0.52;;;13.70;87.10;;;17.85;68.13;101603.25;5060093;27;96884;-66
2021/04/10 09:48:25;;;;;;;1.60;0.35;;;13.70;87.30;;;18.10;67.64;101596.06;5059307;27;97898;-66
2021/04/10 09:51:13;;;;;;;0.70;0.32;;;13.90;87.40;;;17.59;68.80;101604.53;5054468;27;97820;-66
2021/04/10 09:53:49;;;;;;;1.40;0.73;;;13.90;86.70;;;17.17;70.35;101596.56;5048364;27;97134;-66
2021/04/10 09:56:20;;;;;;;3.30;1.20;;;13.80;87.00;;;17.04;70.96;101606.47;5059479;27;96895;-66
2021/04/10 09:58:56;;;;;;;4.63;1.15;;;13.70;87.70;;;16.85;71.52;101606.03;5058839;27;98498;-66
2021/04/10 10:01:29;;;;;;;1.55;0.98;;;13.60;87.80;;;16.78;71.78;101610.34;5058239;27;97041;-66
2021/04/10 10:03:58;;;;;;;1.80;1.23;;;13.60;87.80;;;16.63;71.83;101605.44;5060924;27;96728;-67
2021/04/10 10:06:36;;;;;;;11.02;1.70;;;13.50;87.30;;;16.47;72.11;101607.84;5060367;27;97175;-68
2021/04/10 10:09:27;;;;;;;5.57;1.63;;;13.40;87.50;;;16.34;72.63;101600.69;5051996;27;98431;-67
2021/04/10 10:11:58;;;;;;;9.35;0.45;;;13.20;87.60;;;16.35;72.51;101602.28;5090717;27;97609;-66
2021/04/10 10:14:25;;;;;;;0.10;0.10;;;13.10;87.70;;;16.48;72.22;101605.94;5059620;27;97238;-67
2021/04/10 10:16:54;;;;;;;1.20;1.10;;;13.00;88.20;;;16.64;71.26;101604.34;5091323;27;97743;-66
2021/04/10 10:19:22;;;;;;;3.47;1.40;;;13.10;88.40;;;16.72;71.02;101601.63;5081767;27;97928;-67
2021/04/10 10:21:50;;;;;;;0.65;0.65;;;13.20;88.20;;;16.55;71.65;101601.63;5040240;27;97745;-66
2021/04/10 10:24:22;;;;;;;1.02;1.02;;;13.10;87.80;;;16.37;71.62;101600.06;5059675;27;97294;-66
2021/04/10 10:26:52;;;;;;;3.50;0.50;;;13.10;88.00;;;16.34;71.69;101597.97;5061827;27;96846;-67
2021/04/10 10:29:20;;;;;;;0.20;0.20;;;13.00;88.20;;;16.40;72.25;101598.63;5060154;27;97876;-67
2021/04/10 10:31:50;;;;;;;2.38;0.43;;;13.00;88.50;;;16.20;72.52;101593.81;5058562;27;97713;-66
2021/04/10 10:34:23;;;;;;;0.35;0.35;;;13.00;88.40;;;16.06;72.65;101599.41;5057041;27;96986;-66
2021/04/10 10:36:53;;;;;;;2.30;1.65;;;12.90;88.80;;;15.91;73.86;101597.13;5064746;27;97227;-66
2021/04/10 10:39:28;;;;;;;0.17;0.17;;;12.80;89.40;;;15.88;73.08;101588.84;5064362;27;98076;-66
2021/04/10 10:41:57;;;;;;;0.15;0.08;;;12.70;88.90;;;15.87;73.24;101587.25;5045829;27;97506;-66